createdAt,value
2018-02-19T00:01:06.215Z,18.84
2018-02-19T00:02:15.483Z,18.81
2018-02-19T00:03:24.749Z,18.78
2018-02-19T00:04:33.705Z,18.76
2018-02-19T00:05:42.680Z,18.82
2018-02-19T00:06:52.173Z,18.84
2018-02-19T00:08:01.423Z,18.84
2018-02-19T00:09:11.200Z,18.81
2018-02-19T00:10:20.876Z,18.87
2018-02-19T00:11:29.556Z,18.81
2018-02-19T00:12:38.519Z,18.85
2018-02-19T00:13:47.988Z,18.85
2018-02-19T00:14:56.669Z,18.82
2018-02-19T00:16:06.191Z,18.87
2018-02-19T00:17:15.423Z,18.81
2018-02-19T00:18:24.442Z,18.82
2018-02-19T00:19:33.658Z,18.78
2018-02-19T00:20:42.898Z,18.85
2018-02-19T00:21:52.417Z,18.84
2018-02-19T00:23:01.742Z,18.8
2018-02-19T00:24:10.698Z,18.78
2018-02-19T00:25:19.666Z,18.81
2018-02-19T00:26:28.620Z,18.78
2018-02-19T00:27:37.845Z,18.87
2018-02-19T00:28:47.154Z,18.81
2018-02-19T00:29:56.148Z,18.75
2018-02-19T00:31:05.371Z,18.81
2018-02-19T00:32:14.417Z,18.75
2018-02-19T00:33:23.380Z,18.78
2018-02-19T00:34:32.119Z,18.76
2018-02-19T00:35:41.398Z,18.76
2018-02-19T00:36:50.121Z,18.8
2018-02-19T00:37:59.714Z,18.78
2018-02-19T00:39:08.702Z,18.82
2018-02-19T00:40:18.223Z,18.73
2018-02-19T00:41:26.974Z,18.72
2018-02-19T00:42:36.494Z,18.78
2018-02-19T00:43:45.176Z,18.8
2018-02-19T00:44:54.139Z,18.66
2018-02-19T00:46:03.887Z,18.75
2018-02-19T00:47:13.105Z,18.7
2018-02-19T00:48:22.330Z,18.72
2018-02-19T00:49:32.093Z,18.75
2018-02-19T00:50:41.303Z,18.75
2018-02-19T00:51:50.350Z,18.78
2018-02-19T00:52:59.096Z,18.73
2018-02-19T00:54:08.435Z,18.72
2018-02-19T00:55:17.380Z,18.7
2018-02-19T00:56:26.329Z,18.75
2018-02-19T00:57:35.036Z,18.7
2018-02-19T00:58:44.032Z,18.72
2018-02-19T00:59:53.261Z,18.73
2018-02-19T01:01:02.508Z,18.72
2018-02-19T01:02:11.448Z,18.73
2018-02-19T01:03:20.691Z,18.69
2018-02-19T01:04:29.699Z,18.76
2018-02-19T01:05:38.680Z,18.78
2018-02-19T01:06:47.908Z,18.69
2018-02-19T01:07:56.929Z,18.66
2018-02-19T01:09:06.414Z,18.75
2018-02-19T01:10:15.155Z,18.7
2018-02-19T01:11:24.108Z,18.69
2018-02-19T01:12:33.109Z,18.67
2018-02-19T01:13:41.820Z,18.65
2018-02-19T01:14:51.320Z,18.66
2018-02-19T01:16:00.048Z,18.62
2018-02-19T01:17:09.320Z,18.67
2018-02-19T01:18:18.523Z,18.65
2018-02-19T01:19:27.502Z,18.67
2018-02-19T01:20:36.776Z,18.66
2018-02-19T01:21:46.008Z,18.66
2018-02-19T01:22:55.822Z,18.57
2018-02-19T01:24:05.066Z,18.6
2018-02-19T01:25:14.046Z,18.57
2018-02-19T01:26:23.310Z,18.6
2018-02-19T01:27:32.583Z,18.58
2018-02-19T01:28:41.850Z,18.54
2018-02-19T01:29:50.808Z,18.52
2018-02-19T01:31:00.055Z,18.54
2018-02-19T01:32:09.025Z,18.57
2018-02-19T01:33:18.590Z,18.57
2018-02-19T01:34:27.814Z,18.6
2018-02-19T01:35:36.785Z,18.55
2018-02-19T01:36:45.999Z,18.58
2018-02-19T01:37:54.678Z,18.6
2018-02-19T01:39:03.365Z,18.62
2018-02-19T01:40:12.585Z,18.55
2018-02-19T01:41:21.544Z,18.52
2018-02-19T01:42:30.775Z,18.54
2018-02-19T01:43:40.242Z,18.54
2018-02-19T01:44:49.459Z,18.62
2018-02-19T01:45:58.149Z,18.57
2018-02-19T01:47:07.176Z,18.62
2018-02-19T01:48:16.376Z,18.58
2018-02-19T01:49:25.343Z,18.54
2018-02-19T01:50:34.345Z,18.63
2018-02-19T01:51:43.550Z,18.6
2018-02-19T01:52:52.520Z,18.6
2018-02-19T01:54:02.013Z,18.54
2018-02-19T01:55:10.723Z,18.58
2018-02-19T01:56:19.681Z,18.51
2018-02-19T01:57:28.625Z,18.57
2018-02-19T01:58:38.124Z,18.5
2018-02-19T01:59:47.090Z,18.65
2018-02-19T02:00:56.578Z,18.54
2018-02-19T02:02:05.263Z,18.6
2018-02-19T02:03:14.481Z,18.57
2018-02-19T02:04:23.174Z,18.52
2018-02-19T02:05:32.170Z,18.62
2018-02-19T02:06:41.650Z,18.51
2018-02-19T02:07:50.353Z,18.55
2018-02-19T02:08:59.838Z,18.55
2018-02-19T02:10:09.059Z,18.58
2018-02-19T02:11:18.001Z,18.55
2018-02-19T02:12:27.228Z,18.48
2018-02-19T02:13:36.435Z,18.55
2018-02-19T02:14:45.382Z,18.55
2018-02-19T02:15:54.455Z,18.6
2018-02-19T02:17:03.477Z,18.48
2018-02-19T02:18:12.267Z,18.58
2018-02-19T02:19:21.732Z,18.58
2018-02-19T02:20:30.937Z,18.6
2018-02-19T02:21:40.009Z,18.48
2018-02-19T02:22:48.979Z,18.48
2018-02-19T02:23:58.190Z,18.5
2018-02-19T02:25:07.120Z,18.5
2018-02-19T02:26:17.002Z,18.58
2018-02-19T02:27:26.241Z,18.58
2018-02-19T02:28:35.460Z,18.58
2018-02-19T02:29:44.462Z,18.54
2018-02-19T02:30:53.432Z,18.62
2018-02-19T02:32:03.006Z,18.6
2018-02-19T02:33:12.495Z,18.52
2018-02-19T02:34:21.168Z,18.54
2018-02-19T02:35:30.155Z,18.52
2018-02-19T02:36:39.396Z,18.57
2018-02-19T02:37:48.887Z,18.58
2018-02-19T02:38:58.098Z,18.57
2018-02-19T02:40:07.769Z,18.54
2018-02-19T02:41:16.986Z,18.55
2018-02-19T02:42:26.048Z,18.57
2018-02-19T02:43:35.545Z,18.6
2018-02-19T02:44:44.848Z,18.62
2018-02-19T02:45:54.143Z,18.51
2018-02-19T02:47:02.942Z,18.52
2018-02-19T02:48:12.440Z,18.54
2018-02-19T02:49:21.462Z,18.55
2018-02-19T02:50:30.437Z,18.51
2018-02-19T02:51:40.009Z,18.65
2018-02-19T02:52:49.284Z,18.52
2018-02-19T02:53:58.300Z,18.63
2018-02-19T02:55:07.592Z,18.54
2018-02-19T02:56:16.622Z,18.57
2018-02-19T02:57:26.153Z,18.54
2018-02-19T02:58:34.907Z,18.52
2018-02-19T02:59:43.674Z,18.52
2018-02-19T03:00:52.888Z,18.57
2018-02-19T03:02:02.125Z,18.55
2018-02-19T03:03:11.428Z,18.54
2018-02-19T03:04:21.013Z,18.65
2018-02-19T03:05:30.027Z,18.55
2018-02-19T03:06:39.572Z,18.51
2018-02-19T03:07:48.537Z,18.54
2018-02-19T03:08:57.507Z,18.52
2018-02-19T03:10:06.732Z,18.58
2018-02-19T03:11:15.790Z,18.66
2018-02-19T03:12:25.043Z,18.58
2018-02-19T03:13:34.297Z,18.51
2018-02-19T03:14:43.564Z,18.54
2018-02-19T03:15:52.258Z,18.66
2018-02-19T03:17:01.484Z,18.57
2018-02-19T03:18:11.333Z,18.51
2018-02-19T03:19:20.815Z,18.58
2018-02-19T03:20:30.013Z,18.52
2018-02-19T03:21:39.487Z,18.51
2018-02-19T03:22:48.749Z,18.63
2018-02-19T03:23:57.458Z,18.55
2018-02-19T03:25:06.174Z,18.54
2018-02-19T03:26:15.398Z,18.52
2018-02-19T03:27:24.613Z,18.6
2018-02-19T03:28:33.610Z,18.6
2018-02-19T03:29:42.840Z,18.62
2018-02-19T03:30:51.811Z,18.52
2018-02-19T03:32:01.094Z,18.52
2018-02-19T03:33:10.353Z,18.55
2018-02-19T03:34:19.559Z,18.58
2018-02-19T03:35:29.391Z,18.58
2018-02-19T03:36:39.138Z,18.55
2018-02-19T03:37:48.089Z,18.58
2018-02-19T03:38:57.308Z,18.55
2018-02-19T03:40:06.270Z,18.54
2018-02-19T03:41:15.510Z,18.55
2018-02-19T03:42:24.970Z,18.55
2018-02-19T03:43:34.454Z,18.55
2018-02-19T03:44:43.678Z,18.54
2018-02-19T03:45:52.689Z,18.52
2018-02-19T03:47:02.431Z,18.5
2018-02-19T03:48:12.161Z,18.47
2018-02-19T03:49:21.100Z,18.48
2018-02-19T03:50:30.302Z,18.48
2018-02-19T03:51:39.336Z,18.47
2018-02-19T03:52:48.300Z,18.48
2018-02-19T03:53:56.989Z,18.47
2018-02-19T03:55:05.681Z,18.44
2018-02-19T03:56:14.363Z,18.45
2018-02-19T03:57:23.340Z,18.45
2018-02-19T03:58:32.299Z,18.44
2018-02-19T03:59:41.512Z,18.47
2018-02-19T04:00:50.811Z,18.41
2018-02-19T04:02:00.315Z,18.48
2018-02-19T04:03:09.836Z,18.47
2018-02-19T04:04:19.094Z,18.39
2018-02-19T04:05:28.387Z,18.41
2018-02-19T04:06:37.083Z,18.45
2018-02-19T04:07:46.321Z,18.45
2018-02-19T04:08:55.545Z,18.42
2018-02-19T04:10:04.545Z,18.45
2018-02-19T04:11:13.572Z,18.42
2018-02-19T04:12:22.534Z,18.39
2018-02-19T04:13:31.840Z,18.45
2018-02-19T04:14:40.845Z,18.39
2018-02-19T04:15:49.550Z,18.47
2018-02-19T04:16:59.030Z,18.41
2018-02-19T04:18:08.018Z,18.45
2018-02-19T04:19:16.744Z,18.42
2018-02-19T04:20:25.987Z,18.42
2018-02-19T04:21:35.241Z,18.41
2018-02-19T04:22:45.277Z,18.42
2018-02-19T04:23:54.241Z,18.5
2018-02-19T04:25:03.465Z,18.39
2018-02-19T04:26:12.963Z,18.44
2018-02-19T04:27:22.279Z,18.37
2018-02-19T04:28:31.034Z,18.48
2018-02-19T04:29:40.320Z,18.41
2018-02-19T04:30:49.267Z,18.42
2018-02-19T04:31:58.263Z,18.48
2018-02-19T04:33:07.133Z,18.39
2018-02-19T04:34:16.093Z,18.42
2018-02-19T04:35:25.049Z,18.44
2018-02-19T04:36:34.604Z,18.42
2018-02-19T04:37:43.701Z,18.47
2018-02-19T04:38:52.443Z,18.35
2018-02-19T04:40:01.525Z,18.42
2018-02-19T04:41:10.680Z,18.48
2018-02-19T04:42:19.421Z,18.42
2018-02-19T04:43:28.430Z,18.36
2018-02-19T04:44:37.422Z,18.41
2018-02-19T04:45:47.232Z,18.41
2018-02-19T04:46:56.502Z,18.36
2018-02-19T04:48:05.882Z,18.41
2018-02-19T04:49:14.937Z,18.39
2018-02-19T04:50:24.278Z,18.35
2018-02-19T04:51:33.325Z,18.33
2018-02-19T04:52:42.131Z,18.23
2018-02-19T04:53:50.863Z,18.33
2018-02-19T04:54:59.827Z,18.36
2018-02-19T04:56:08.562Z,18.36
2018-02-19T04:57:17.251Z,18.32
2018-02-19T04:58:25.963Z,18.32
2018-02-19T04:59:34.985Z,18.29
2018-02-19T05:00:44.222Z,18.29
2018-02-19T05:01:53.240Z,18.29
2018-02-19T05:03:02.291Z,18.29
2018-02-19T05:04:11.810Z,18.33
2018-02-19T05:05:20.801Z,18.3
2018-02-19T05:06:29.484Z,18.29
2018-02-19T05:07:38.432Z,18.26
2018-02-19T05:08:47.653Z,18.32
2018-02-19T05:09:56.615Z,18.26
2018-02-19T05:11:05.594Z,18.33
2018-02-19T05:12:14.572Z,18.29
2018-02-19T05:13:23.246Z,18.29
2018-02-19T05:14:32.475Z,18.27
2018-02-19T05:15:41.685Z,18.32
2018-02-19T05:16:51.192Z,18.3
2018-02-19T05:18:00.153Z,18.32
2018-02-19T05:19:09.086Z,18.33
2018-02-19T05:20:17.791Z,18.33
2018-02-19T05:21:26.792Z,18.32
2018-02-19T05:22:35.528Z,18.29
2018-02-19T05:23:45.264Z,18.3
2018-02-19T05:24:54.301Z,18.29
2018-02-19T05:26:03.527Z,18.29
2018-02-19T05:27:12.213Z,18.29
2018-02-19T05:28:21.443Z,18.29
2018-02-19T05:29:30.457Z,18.32
2018-02-19T05:30:39.670Z,18.3
2018-02-19T05:31:49.160Z,18.27
2018-02-19T05:32:58.366Z,18.3
2018-02-19T05:34:07.576Z,18.29
2018-02-19T05:35:16.516Z,18.3
2018-02-19T05:36:26.014Z,18.27
2018-02-19T05:37:35.311Z,18.32
2018-02-19T05:38:44.771Z,18.32
2018-02-19T05:39:53.742Z,18.27
2018-02-19T05:41:02.741Z,18.32
2018-02-19T05:42:12.309Z,18.3
2018-02-19T05:43:21.781Z,18.27
2018-02-19T05:44:31.059Z,18.3
2018-02-19T05:45:40.313Z,18.27
2018-02-19T05:46:49.532Z,18.29
2018-02-19T05:47:58.569Z,18.33
2018-02-19T05:49:07.273Z,18.32
2018-02-19T05:50:16.549Z,18.29
2018-02-19T05:51:25.790Z,18.32
2018-02-19T05:52:34.797Z,18.29
2018-02-19T05:53:43.817Z,18.3
2018-02-19T05:54:53.380Z,18.29
2018-02-19T05:56:02.639Z,18.29
2018-02-19T05:57:11.370Z,18.29
2018-02-19T05:58:20.385Z,18.29
2018-02-19T05:59:29.330Z,18.29
2018-02-19T06:00:38.894Z,18.29
2018-02-19T06:01:47.879Z,18.27
2018-02-19T06:02:56.835Z,18.32
2018-02-19T06:04:06.174Z,18.32
2018-02-19T06:05:15.409Z,18.29
2018-02-19T06:06:24.715Z,18.33
2018-02-19T06:07:33.776Z,18.33
2018-02-19T06:08:43.021Z,18.32
2018-02-19T06:09:51.720Z,18.23
2018-02-19T06:11:00.681Z,18.25
2018-02-19T06:12:09.672Z,18.29
2018-02-19T06:13:19.011Z,18.26
2018-02-19T06:14:28.496Z,18.35
2018-02-19T06:15:37.218Z,18.25
2018-02-19T06:16:46.046Z,18.25
2018-02-19T06:17:55.032Z,18.33
2018-02-19T06:19:03.808Z,18.26
2018-02-19T06:20:12.547Z,18.25
2018-02-19T06:21:21.645Z,18.26
2018-02-19T06:22:30.971Z,18.27
2018-02-19T06:23:40.001Z,18.32
2018-02-19T06:24:49.329Z,18.25
2018-02-19T06:25:58.747Z,18.29
2018-02-19T06:27:08.083Z,18.35
2018-02-19T06:28:17.440Z,18.29
2018-02-19T06:29:26.928Z,18.32
2018-02-19T06:30:36.610Z,18.29
2018-02-19T06:31:45.373Z,18.26
2018-02-19T06:32:54.333Z,18.26
2018-02-19T06:34:03.575Z,18.36
2018-02-19T06:35:12.803Z,18.33
2018-02-19T06:36:22.065Z,18.37
2018-02-19T06:37:31.037Z,18.37
2018-02-19T06:38:39.716Z,18.41
2018-02-19T06:39:48.471Z,18.42
2018-02-19T06:40:57.425Z,18.39
2018-02-19T06:42:06.658Z,18.39
2018-02-19T06:43:15.619Z,18.44
2018-02-19T06:44:25.165Z,18.37
2018-02-19T06:45:34.662Z,18.41
2018-02-19T06:46:43.370Z,18.45
2018-02-19T06:47:52.640Z,18.48
2018-02-19T06:49:01.901Z,18.39
2018-02-19T06:50:11.138Z,18.39
2018-02-19T06:51:19.854Z,18.42
2018-02-19T06:52:29.087Z,18.39
2018-02-19T06:53:37.785Z,18.39
2018-02-19T06:54:46.794Z,18.42
2018-02-19T06:55:55.786Z,18.45
2018-02-19T06:57:04.844Z,18.44
2018-02-19T06:58:13.807Z,18.37
2018-02-19T06:59:23.047Z,18.47
2018-02-19T07:00:32.265Z,18.44
2018-02-19T07:01:41.769Z,18.37
2018-02-19T07:02:51.027Z,18.41
2018-02-19T07:04:00.523Z,18.45
2018-02-19T07:05:10.271Z,18.36
2018-02-19T07:06:19.528Z,18.39
2018-02-19T07:07:28.476Z,18.44
2018-02-19T07:08:37.453Z,18.45
2018-02-19T07:09:46.742Z,18.42
2018-02-19T07:10:55.470Z,18.42
2018-02-19T07:12:04.173Z,18.41
2018-02-19T07:13:13.435Z,18.41
2018-02-19T07:14:22.397Z,18.44
2018-02-19T07:15:31.973Z,18.36
2018-02-19T07:16:40.947Z,18.44
2018-02-19T07:17:49.660Z,18.44
2018-02-19T07:18:58.364Z,18.44
2018-02-19T07:20:07.652Z,18.37
2018-02-19T07:21:17.439Z,18.41
2018-02-19T07:22:26.159Z,18.41
2018-02-19T07:23:35.174Z,18.45
2018-02-19T07:24:43.886Z,18.41
2018-02-19T07:25:53.118Z,18.48
2018-02-19T07:27:02.056Z,18.42
2018-02-19T07:28:11.047Z,18.41
2018-02-19T07:29:19.742Z,18.37
2018-02-19T07:30:28.445Z,18.51
2018-02-19T07:31:37.461Z,18.48
2018-02-19T07:32:46.245Z,18.45
2018-02-19T07:33:55.834Z,18.44
2018-02-19T07:35:05.301Z,18.48
2018-02-19T07:36:14.283Z,18.47
2018-02-19T07:37:23.246Z,18.51
2018-02-19T07:38:32.724Z,18.47
2018-02-19T07:39:42.215Z,18.41
2018-02-19T07:40:51.472Z,18.51
2018-02-19T07:42:00.480Z,18.47
2018-02-19T07:43:09.450Z,18.45
2018-02-19T07:44:19.007Z,18.57
2018-02-19T07:45:27.684Z,18.54
2018-02-19T07:46:37.568Z,18.6
2018-02-19T07:47:46.790Z,18.51
2018-02-19T07:48:55.820Z,18.48
2018-02-19T07:50:04.923Z,18.57
2018-02-19T07:51:13.991Z,18.54
2018-02-19T07:52:23.588Z,18.57
2018-02-19T07:53:32.909Z,18.67
2018-02-19T07:54:41.587Z,18.6
2018-02-19T07:55:50.609Z,18.63
2018-02-19T07:56:59.564Z,18.65
2018-02-19T07:58:08.848Z,18.65
2018-02-19T07:59:18.049Z,18.65
2018-02-19T08:00:27.001Z,18.62
2018-02-19T08:01:36.308Z,18.63
2018-02-19T08:02:45.349Z,18.67
2018-02-19T08:03:54.610Z,18.7
2018-02-19T08:05:03.847Z,18.75
2018-02-19T08:06:13.068Z,18.75
2018-02-19T08:07:23.508Z,18.88
2018-02-19T08:08:33.202Z,18.87
2018-02-19T08:09:42.421Z,18.91
2018-02-19T08:10:51.905Z,18.9
2018-02-19T08:12:00.654Z,18.98
2018-02-19T08:13:09.466Z,18.98
2018-02-19T08:14:18.969Z,19.04
2018-02-19T08:15:29.064Z,19.19
2018-02-19T08:16:38.707Z,19.21
2018-02-19T08:17:47.701Z,19.28
2018-02-19T08:18:56.877Z,19.26
2018-02-19T08:20:06.814Z,19.33
2018-02-19T08:21:16.241Z,19.36
2018-02-19T08:22:25.245Z,19.47
2018-02-19T08:23:34.468Z,19.54
2018-02-19T08:24:44.027Z,19.55
2018-02-19T08:25:53.558Z,19.63
2018-02-19T08:27:02.823Z,19.61
2018-02-19T08:28:12.106Z,19.59
2018-02-19T08:29:21.356Z,19.71
2018-02-19T08:30:30.350Z,19.66
2018-02-19T08:31:39.318Z,19.74
2018-02-19T08:32:48.538Z,19.77
2018-02-19T08:33:57.265Z,19.71
2018-02-19T08:35:06.503Z,19.83
2018-02-19T08:36:15.485Z,19.83
2018-02-19T08:37:24.175Z,19.94
2018-02-19T08:38:33.188Z,19.83
2018-02-19T08:39:42.746Z,19.84
2018-02-19T08:40:51.762Z,19.88
2018-02-19T08:42:00.480Z,20.02
2018-02-19T08:43:10.152Z,19.99
2018-02-19T08:44:19.739Z,20.03
2018-02-19T08:45:29.051Z,19.99
2018-02-19T08:46:38.315Z,20.02
2018-02-19T08:47:47.841Z,20.06
2018-02-19T08:48:56.889Z,20.06
2018-02-19T08:50:06.472Z,20.1
2018-02-19T08:51:15.530Z,20.24
2018-02-19T08:52:24.299Z,20.16
2018-02-19T08:53:33.347Z,20.33
2018-02-19T08:54:42.342Z,20.43
2018-02-19T08:55:51.194Z,20.54
2018-02-19T08:56:59.868Z,20.59
2018-02-19T08:58:08.578Z,20.67
2018-02-19T08:59:18.103Z,20.66
2018-02-19T09:00:27.345Z,20.72
2018-02-19T09:01:36.600Z,20.85
2018-02-19T09:02:45.573Z,20.97
2018-02-19T09:03:54.297Z,20.98
2018-02-19T09:05:03.294Z,21.1
2018-02-19T09:06:13.054Z,21.21
2018-02-19T09:07:22.579Z,21.28
2018-02-19T09:08:32.144Z,21.32
2018-02-19T09:09:41.144Z,21.46
2018-02-19T09:10:50.417Z,21.54
2018-02-19T09:11:59.914Z,21.65
2018-02-19T09:13:09.154Z,21.74
2018-02-19T09:14:18.460Z,21.74
2018-02-19T09:15:27.200Z,21.8
2018-02-19T09:16:36.183Z,21.92
2018-02-19T09:17:45.476Z,21.86
2018-02-19T09:18:54.463Z,22
2018-02-19T09:20:03.443Z,21.94
2018-02-19T09:21:13.040Z,22.05
2018-02-19T09:22:22.281Z,22.05
2018-02-19T09:23:31.273Z,22.14
2018-02-19T09:24:40.487Z,22.24
2018-02-19T09:25:49.728Z,22.31
2018-02-19T09:26:58.736Z,22.27
2018-02-19T09:28:07.980Z,22.27
2018-02-19T09:29:17.258Z,22.35
2018-02-19T09:30:26.552Z,22.39
2018-02-19T09:31:35.538Z,22.43
2018-02-19T09:32:44.755Z,22.46
2018-02-19T09:33:53.774Z,22.46
2018-02-19T09:35:02.743Z,22.47
2018-02-19T09:36:12.555Z,22.36
2018-02-19T09:37:23.414Z,22.45
2018-02-19T09:38:33.049Z,22.6
2018-02-19T09:39:43.619Z,22.58
2018-02-19T09:40:52.877Z,22.6
2018-02-19T09:42:02.167Z,22.57
2018-02-19T09:43:11.443Z,22.57
2018-02-19T09:44:20.162Z,22.72
2018-02-19T09:45:29.412Z,22.68
2018-02-19T09:46:38.704Z,22.65
2018-02-19T09:47:47.994Z,22.79
2018-02-19T09:48:57.311Z,22.79
2018-02-19T09:50:06.600Z,22.82
2018-02-19T09:51:15.599Z,22.91
2018-02-19T09:52:24.577Z,22.86
2018-02-19T09:53:33.822Z,22.86
2018-02-19T09:54:42.802Z,22.97
2018-02-19T09:55:52.139Z,22.94
2018-02-19T09:57:01.484Z,22.97
2018-02-19T09:58:10.417Z,23.01
2018-02-19T09:59:19.112Z,22.83
2018-02-19T10:00:28.334Z,22.58
2018-02-19T10:01:37.354Z,22.25
2018-02-19T10:02:46.065Z,22
2018-02-19T10:03:55.020Z,21.67
2018-02-19T10:05:04.223Z,21.37
2018-02-19T10:06:13.979Z,21.03
2018-02-19T10:07:23.465Z,20.8
2018-02-19T10:08:32.955Z,20.69
2018-02-19T10:09:41.901Z,20.42
2018-02-19T10:10:51.152Z,20.23
2018-02-19T10:12:00.096Z,20.1
2018-02-19T10:13:09.676Z,19.84
2018-02-19T10:14:19.524Z,19.69
2018-02-19T10:15:29.328Z,19.44
2018-02-19T10:16:38.320Z,19.36
2018-02-19T10:17:47.536Z,19.23
2018-02-19T10:18:56.820Z,19
2018-02-19T10:20:06.803Z,18.88
2018-02-19T10:21:16.052Z,18.75
2018-02-19T10:22:25.276Z,18.6
2018-02-19T10:23:34.634Z,18.45
2018-02-19T10:24:44.389Z,18.36
2018-02-19T10:25:53.135Z,18.25
2018-02-19T10:27:02.633Z,18.08
2018-02-19T10:28:11.858Z,17.96
2018-02-19T10:29:21.073Z,17.93
2018-02-19T10:30:30.276Z,17.82
2018-02-19T10:31:39.564Z,17.77
2018-02-19T10:32:48.811Z,17.63
2018-02-19T10:33:58.072Z,17.48
2018-02-19T10:35:07.316Z,17.46
2018-02-19T10:36:16.832Z,17.3
2018-02-19T10:37:26.574Z,17.26
2018-02-19T10:38:36.613Z,17.18
2018-02-19T10:39:46.115Z,17.12
2018-02-19T10:40:55.885Z,17.07
2018-02-19T10:42:04.984Z,17.04
2018-02-19T10:43:14.208Z,17.03
2018-02-19T10:44:23.175Z,16.91
2018-02-19T10:45:32.635Z,16.76
2018-02-19T10:46:41.844Z,16.76
2018-02-19T10:47:51.339Z,16.75
2018-02-19T10:49:00.609Z,16.86
2018-02-19T10:50:09.826Z,16.93
2018-02-19T10:51:18.771Z,17.04
2018-02-19T10:52:27.481Z,17.18
2018-02-19T10:53:36.731Z,17.16
2018-02-19T10:54:45.412Z,17.33
2018-02-19T10:55:54.378Z,17.46
2018-02-19T10:57:03.587Z,17.63
2018-02-19T10:58:12.810Z,17.82
2018-02-19T10:59:21.515Z,17.99
2018-02-19T11:00:30.480Z,18.18
2018-02-19T11:01:39.456Z,18.25
2018-02-19T11:02:49.234Z,18.37
2018-02-19T11:03:58.332Z,18.54
2018-02-19T11:05:07.044Z,18.67
2018-02-19T11:06:15.982Z,18.84
2018-02-19T11:07:24.974Z,19
2018-02-19T11:08:34.456Z,19.06
2018-02-19T11:09:44.055Z,19.13
2018-02-19T11:10:53.297Z,19.22
2018-02-19T11:12:02.785Z,19.39
2018-02-19T11:13:12.098Z,19.5
2018-02-19T11:14:21.692Z,19.48
2018-02-19T11:15:31.169Z,19.59
2018-02-19T11:16:40.211Z,19.69
2018-02-19T11:17:48.921Z,19.69
2018-02-19T11:18:57.933Z,19.73
2018-02-19T11:20:07.168Z,19.78
2018-02-19T11:21:16.488Z,19.83
2018-02-19T11:22:25.476Z,19.86
2018-02-19T11:23:34.421Z,20.01
2018-02-19T11:24:43.109Z,19.98
2018-02-19T11:25:52.142Z,20.03
2018-02-19T11:27:01.680Z,20.18
2018-02-19T11:28:10.943Z,20.21
2018-02-19T11:29:20.177Z,20.35
2018-02-19T11:30:29.657Z,20.28
2018-02-19T11:31:38.633Z,20.32
2018-02-19T11:32:47.621Z,20.41
2018-02-19T11:33:56.321Z,20.43
2018-02-19T11:35:05.581Z,20.51
2018-02-19T11:36:15.074Z,20.51
2018-02-19T11:37:24.326Z,20.54
2018-02-19T11:38:33.308Z,20.61
2018-02-19T11:39:42.387Z,20.66
2018-02-19T11:40:51.642Z,20.64
2018-02-19T11:42:00.584Z,20.72
2018-02-19T11:43:10.081Z,20.69
2018-02-19T11:44:18.799Z,20.69
2018-02-19T11:45:28.296Z,20.7
2018-02-19T11:46:37.240Z,20.74
2018-02-19T11:47:46.524Z,20.7
2018-02-19T11:48:55.472Z,20.7
2018-02-19T11:50:04.164Z,20.72
2018-02-19T11:51:13.184Z,20.69
2018-02-19T11:52:22.407Z,20.7
2018-02-19T11:53:31.654Z,20.73
2018-02-19T11:54:41.545Z,20.69
2018-02-19T11:55:50.465Z,20.67
2018-02-19T11:56:59.145Z,20.67
2018-02-19T11:58:08.921Z,20.67
2018-02-19T11:59:18.434Z,20.66
2018-02-19T12:00:27.398Z,20.66
2018-02-19T12:01:36.621Z,20.73
2018-02-19T12:02:45.949Z,20.74
2018-02-19T12:03:55.472Z,20.67
2018-02-19T12:05:04.734Z,20.69
2018-02-19T12:06:14.314Z,20.67
2018-02-19T12:07:23.830Z,20.69
2018-02-19T12:08:32.785Z,20.7
2018-02-19T12:09:41.764Z,20.73
2018-02-19T12:10:50.707Z,20.72
2018-02-19T12:11:59.659Z,20.69
2018-02-19T12:13:08.619Z,20.74
2018-02-19T12:14:17.893Z,20.74
2018-02-19T12:15:27.100Z,20.72
2018-02-19T12:16:36.573Z,20.72
2018-02-19T12:17:45.615Z,20.66
2018-02-19T12:18:54.841Z,20.66
2018-02-19T12:20:03.803Z,20.61
2018-02-19T12:21:12.741Z,20.58
2018-02-19T12:22:21.440Z,20.58
2018-02-19T12:23:30.422Z,20.41
2018-02-19T12:24:39.368Z,20.52
2018-02-19T12:25:48.609Z,20.48
2018-02-19T12:26:58.070Z,20.55
2018-02-19T12:28:07.026Z,20.54
2018-02-19T12:29:16.251Z,20.54
2018-02-19T12:30:25.191Z,20.43
2018-02-19T12:31:34.151Z,20.54
2018-02-19T12:32:43.359Z,20.54
2018-02-19T12:33:52.309Z,20.51
2018-02-19T12:35:01.342Z,20.54
2018-02-19T12:36:10.660Z,20.42
2018-02-19T12:37:20.167Z,20.42
2018-02-19T12:38:29.183Z,20.42
2018-02-19T12:39:37.876Z,20.42
2018-02-19T12:40:47.081Z,20.38
2018-02-19T12:41:56.314Z,20.42
2018-02-19T12:43:05.280Z,20.39
2018-02-19T12:44:14.222Z,20.41
2018-02-19T12:45:23.229Z,20.38
2018-02-19T12:46:32.988Z,20.33
2018-02-19T12:47:42.509Z,20.38
2018-02-19T12:48:51.476Z,20.33
2018-02-19T12:50:00.700Z,20.42
2018-02-19T12:51:09.941Z,20.39
2018-02-19T12:52:18.688Z,20.35
2018-02-19T12:53:27.942Z,20.38
2018-02-19T12:54:37.331Z,20.33
2018-02-19T12:55:46.509Z,20.26
2018-02-19T12:56:55.230Z,20.26
2018-02-19T12:58:04.215Z,20.23
2018-02-19T12:59:12.895Z,20.17
2018-02-19T13:00:22.403Z,20.2
2018-02-19T13:01:31.389Z,20.16
2018-02-19T13:02:40.671Z,20.17
2018-02-19T13:03:49.641Z,20.24
2018-02-19T13:04:58.333Z,20.2
2018-02-19T13:06:07.337Z,20.2
2018-02-19T13:07:16.281Z,20.14
2018-02-19T13:08:25.768Z,20.2
2018-02-19T13:09:34.450Z,20.18
2018-02-19T13:10:44.666Z,20.21
2018-02-19T13:11:53.887Z,20.21
2018-02-19T13:13:02.844Z,20.21
2018-02-19T13:14:12.320Z,20.29
2018-02-19T13:15:21.023Z,20.23
2018-02-19T13:16:30.524Z,20.28
2018-02-19T13:17:39.495Z,20.28
2018-02-19T13:18:48.474Z,20.29
2018-02-19T13:19:57.163Z,20.28
2018-02-19T13:21:06.225Z,20.28
2018-02-19T13:22:15.820Z,20.31
2018-02-19T13:23:24.860Z,20.31
2018-02-19T13:24:33.544Z,20.32
2018-02-19T13:25:43.555Z,20.29
2018-02-19T13:26:52.796Z,20.28
2018-02-19T13:28:02.316Z,20.29
2018-02-19T13:29:11.103Z,20.16
2018-02-19T13:30:20.058Z,20.29
2018-02-19T13:31:29.035Z,20.21
2018-02-19T13:32:38.587Z,20.18
2018-02-19T13:33:48.123Z,20.28
2018-02-19T13:34:57.368Z,20.28
2018-02-19T13:36:06.721Z,20.18
2018-02-19T13:37:16.491Z,20.23
2018-02-19T13:38:25.960Z,20.17
2018-02-19T13:39:34.979Z,20.18
2018-02-19T13:40:44.212Z,20.17
2018-02-19T13:41:53.184Z,20.17
2018-02-19T13:43:02.142Z,20.24
2018-02-19T13:44:11.099Z,20.23
2018-02-19T13:45:19.804Z,20.16
2018-02-19T13:46:28.852Z,20.2
2018-02-19T13:47:38.079Z,20.18
2018-02-19T13:48:47.029Z,20.1
2018-02-19T13:49:56.811Z,20.13
2018-02-19T13:51:05.822Z,19.99
2018-02-19T13:52:14.884Z,19.84
2018-02-19T13:53:23.872Z,19.66
2018-02-19T13:54:33.399Z,19.69
2018-02-19T13:55:42.900Z,19.71
2018-02-19T13:56:52.164Z,19.63
2018-02-19T13:58:01.688Z,19.61
2018-02-19T13:59:10.685Z,19.56
2018-02-19T14:00:19.954Z,19.68
2018-02-19T14:01:29.495Z,19.65
2018-02-19T14:02:38.831Z,19.73
2018-02-19T14:03:47.549Z,19.71
2018-02-19T14:04:57.357Z,19.66
2018-02-19T14:06:06.374Z,19.76
2018-02-19T14:07:16.279Z,19.76
2018-02-19T14:08:26.111Z,19.71
2018-02-19T14:09:35.177Z,19.83
2018-02-19T14:10:44.371Z,19.83
2018-02-19T14:11:53.374Z,19.77
2018-02-19T14:13:02.642Z,19.76
2018-02-19T14:14:11.704Z,19.81
2018-02-19T14:15:20.729Z,19.83
2018-02-19T14:16:30.004Z,19.77
2018-02-19T14:17:38.770Z,19.83
2018-02-19T14:18:47.501Z,19.86
2018-02-19T14:19:56.494Z,19.86
2018-02-19T14:21:05.581Z,19.83
2018-02-19T14:22:14.840Z,19.84
2018-02-19T14:23:24.428Z,19.84
2018-02-19T14:24:33.503Z,19.84
2018-02-19T14:25:43.027Z,19.81
2018-02-19T14:26:51.832Z,19.84
2018-02-19T14:28:00.643Z,19.87
2018-02-19T14:29:09.714Z,19.8
2018-02-19T14:30:18.799Z,19.84
2018-02-19T14:31:27.803Z,19.83
2018-02-19T14:32:37.077Z,19.84
2018-02-19T14:33:46.340Z,19.81
2018-02-19T14:34:55.049Z,19.88
2018-02-19T14:36:04.133Z,19.86
2018-02-19T14:37:13.120Z,19.84
2018-02-19T14:38:22.367Z,19.83
2018-02-19T14:39:31.937Z,19.88
2018-02-19T14:40:40.983Z,19.87
2018-02-19T14:41:49.962Z,19.81
2018-02-19T14:42:59.517Z,19.81
2018-02-19T14:44:08.279Z,19.88
2018-02-19T14:45:18.065Z,19.87
2018-02-19T14:46:26.846Z,19.78
2018-02-19T14:47:35.556Z,19.86
2018-02-19T14:48:44.309Z,19.87
2018-02-19T14:49:53.568Z,19.83
2018-02-19T14:51:02.861Z,19.84
2018-02-19T14:52:11.864Z,19.83
2018-02-19T14:53:20.589Z,19.87
2018-02-19T14:54:29.656Z,19.87